Data for 10/15/2015

Time Sea-Level Adjusted Pressure Absolute Pressure Temperature Relative Humidity Dew Point   
(mb) (inHg) (mb) (inHg) (C) (F) (%) (C) (F)
00:05 1025 30.27 855 25.25 9.6 49.2 43 -2.4 27.6
00:10 1025 30.27 855 25.25 9.1 48.4 45 -2.3 27.9
00:15 1026 30.3 855 25.25 8.6 47.5 47 -1.9 28.6
00:20 1026 30.3 855 25.25 8.5 47.3 46 -2.3 27.8
00:25 1026 30.3 855 25.25 8.5 47.2 46 -2.3 27.8
00:30 1026 30.3 855 25.25 8.4 47.1 47 -2.4 27.8
00:35 1026 30.3 855 25.25 8.5 47.3 46 -2.3 27.8
00:40 1026 30.3 855 25.25 8.6 47.4 44 -3 26.6
00:45 1026 30.3 855 25.25 9 48.1 43 -3.1 26.5
00:50 1026 30.3 855 25.25 9.2 48.6 42 -3.2 26.3
00:55 1026 30.3 855 25.25 9.2 48.6 41 -3.4 25.9
01:00 1026 30.3 855 25.25 9.3 48.7 40 -3.6 25.5
01:05 1026 30.3 855 25.25 9.1 48.4 39 -3.9 24.9
01:10 1026 30.3 855 25.25 8.4 47.1 43 -3.4 25.9
01:15 1026 30.3 855 25.25 7.7 45.8 45 -3.6 25.6
01:20 1026 30.3 855 25.25 7.3 45.1 47 -3.3 26.1
01:25 1026 30.3 855 25.25 7.2 44.9 49 -3 26.7
01:30 1026 30.3 855 25.25 7.1 44.8 49 -3 26.7
01:35 1026 30.3 855 25.25 7.3 45.1 46 -3.4 25.8
01:40 1026 30.3 855 25.25 7.5 45.6 44 -3.8 25.2
01:45 1026 30.3 855 25.25 7.5 45.5 43 -4.4 24.1
01:50 1026 30.3 855 25.25 7.8 46.1 40 -4.9 23.2
01:55 1026 30.3 855 25.25 7.9 46.2 43 -4 24.8
02:00 1026 30.3 855 25.25 7.9 46.2 42 -4.2 24.4
02:05 1026 30.3 855 25.25 7.8 46 44 -3.6 25.6
02:10 1026 30.3 856 25.28 7.2 45 45 -3.9 25
02:15 1026 30.3 856 25.28 7.2 44.9 43 -4.6 23.7
02:20 1026 30.3 856 25.28 7.2 45 44 -4.2 24.5
02:25 1026 30.3 856 25.28 6.7 44.1 44 -4.5 23.9
02:30 1026 30.3 856 25.28 6.9 44.4 43 -4.8 23.3
02:35 1027 30.33 856 25.28 7.2 44.9 42 -5 23.1
02:40 1027 30.33 856 25.28 7.6 45.7 41 -4.7 23.6
02:45 1027 30.33 856 25.28 7.5 45.6 40 -5.3 22.5
02:50 1027 30.33 856 25.28 7.7 45.8 41 -4.8 23.3
02:55 1027 30.33 856 25.28 7.7 45.9 42 -4.4 24.1
03:00 1027 30.33 856 25.28 7.9 46.3 41 -4.5 23.9
03:05 1027 30.33 856 25.28 8 46.3 40 -4.9 23.1
03:10 1027 30.33 856 25.28 7.5 45.6 44 -3.9 25
03:15 1027 30.33 856 25.28 6.3 43.3 47 -4.3 24.3
03:20 1027 30.33 856 25.28 5.9 42.7 44 -5.3 22.5
03:25 1027 30.33 856 25.28 6.6 43.9 42 -5.4 22.3
03:30 1027 30.33 856 25.28 6.9 44.3 42 -5.2 22.6
03:35 1027 30.33 856 25.28 6.7 44 43 -5 23
03:40 1027 30.33 856 25.28 6.7 44.1 43 -4.9 23.1
03:45 1027 30.33 856 25.28 6.4 43.6 44 -4.9 23.3
03:50 1027 30.33 856 25.28 6.1 42.9 44 -5.3 22.5
03:55 1027 30.33 856 25.28 6 42.9 43 -5.6 21.9
04:00 1027 30.33 856 25.28 6 42.9 44 -5.3 22.4
04:05 1027 30.33 856 25.28 5.7 42.2 44 -5.6 21.9
04:10 1027 30.33 856 25.28 5.9 42.7 42 -5.9 21.4
04:15 1027 30.33 856 25.28 6 42.9 44 -5.3 22.5
04:20 1027 30.33 856 25.28 6 42.7 40 -6.7 19.9
04:25 1027 30.33 856 25.28 6.3 43.4 43 -5.2 22.7
04:30 1027 30.33 856 25.28 5.8 42.4 44 -5.6 21.9
04:35 1027 30.33 857 25.31 5.7 42.2 41 -6.4 20.4
04:40 1027 30.33 857 25.31 6.4 43.6 41 -5.9 21.5
04:45 1027 30.33 857 25.31 6 42.7 46 -4.8 23.3
04:50 1027 30.33 857 25.31 4.9 40.9 48 -5.1 22.8
04:55 1027 30.33 857 25.31 5.3 41.5 44 -5.9 21.4
05:00 1027 30.33 857 25.31 5.4 41.6 46 -5.4 22.3
05:05 1027 30.33 857 25.31 5.2 41.4 46 -5.4 22.2
05:10 1027 30.33 857 25.31 5.2 41.3 45 -5.7 21.8
05:15 1028 30.36 857 25.31 5.3 41.5 44 -5.9 21.3
05:20 1028 30.36 857 25.31 5.8 42.4 43 -5.9 21.4
05:25 1028 30.36 857 25.31 5.8 42.5 43 -5.7 21.8
05:30 1028 30.36 857 25.31 5.7 42.2 45 -5.4 22.2
05:35 1028 30.36 857 25.31 5.1 41.2 46 -5.5 22.2
05:40 1028 30.36 857 25.31 4.7 40.4 48 -5.5 22.2
05:45 1028 30.36 857 25.31 4.8 40.7 45 -6 21.2
05:50 1028 30.36 857 25.31 5.4 41.7 43 -6.1 21.1
05:55 1028 30.36 858 25.34 5.8 42.5 42 -6 21.2
06:00 1028 30.36 858 25.34 5.9 42.7 42 -5.9 21.4
06:05 1028 30.36 858 25.34 5.9 42.6 43 -5.9 21.5
06:10 1028 30.36 858 25.34 5.7 42.3 44 -5.5 22.1
06:15 1028 30.36 858 25.34 6 42.8 44 -5.4 22.3
06:20 1028 30.36 858 25.34 5.9 42.6 43 -5.8 21.6
06:25 1028 30.36 858 25.34 5.5 41.9 45 -5.5 22.1
06:30 1028 30.36 858 25.34 4.9 40.9 44 -6.2 20.8
06:35 1028 30.36 857 25.31 5.4 41.8 45 -5.5 22.1
06:40 1028 30.36 858 25.34 4.7 40.5 49 -5.1 22.9
06:45 1028 30.36 858 25.34 5.2 41.4 46 -5.5 22
06:50 1029 30.39 858 25.34 5.2 41.4 47 -5.3 22.5
06:55 1028 30.36 858 25.34 5.8 42.4 44 -5.6 21.9
07:00 1029 30.39 858 25.34 6.4 43.6 42 -5.7 21.8
07:05 1029 30.39 858 25.34 6.4 43.5 43 -5.2 22.7
07:10 1029 30.39 858 25.34 6.2 43.1 43 -5.5 22.1
07:15 1029 30.39 858 25.34 6.1 43 44 -5.2 22.7
07:20 1029 30.39 858 25.34 6.1 43 45 -5 22.9
07:25 1029 30.39 858 25.34 6.2 43.2 45 -4.7 23.5
07:30 1029 30.39 858 25.34 6.4 43.6 46 -4.5 23.9
07:35 1029 30.39 858 25.34 7.1 44.7 44 -4.4 24.1
07:40 1029 30.39 858 25.34 8.1 46.5 42 -4.2 24.5
07:45 1029 30.39 858 25.34 8.7 47.6 41 -3.8 25.1
07:50 1029 30.39 858 25.34 8.9 48.1 41 -3.6 25.6
07:55 1029 30.39 858 25.34 8.8 47.9 42 -3.2 26.2
08:00 1029 30.39 858 25.34 8.4 47.2 43 -3.3 26
08:05 1029 30.39 858 25.34 8.1 46.5 44 -3.4 25.8
08:10 1029 30.39 858 25.34 7.7 45.9 45 -3.4 25.9
08:15 1029 30.39 858 25.34 7.6 45.6 45 -3.5 25.8
08:20 1029 30.39 858 25.34 7.4 45.3 46 -3.3 26
08:25 1029 30.39 858 25.34 7.2 45 47 -3.4 26
08:30 1029 30.39 858 25.34 7.2 44.9 47 -3.4 26
08:35 1029 30.39 858 25.34 7.1 44.7 47 -3.5 25.7
08:40 1029 30.39 858 25.34 7 44.7 46 -3.7 25.4
08:45 1029 30.39 858 25.34 7 44.6 46 -3.9 25.1
08:50 1029 30.39 858 25.34 6.9 44.5 46 -3.9 24.9
08:55 1029 30.39 858 25.34 6.9 44.5 46 -3.9 24.9
09:00 1029 30.39 858 25.34 7 44.7 45 -4 24.9
09:05 1029 30.39 858 25.34 7.2 44.9 45 -3.8 25.1
09:10 1029 30.39 858 25.34 7.4 45.2 44 -3.9 24.9
09:15 1029 30.39 858 25.34 7.3 45.2 44 -4.2 24.5
09:20 1029 30.39 859 25.37 7.5 45.4 43 -4.2 24.5
09:25 1029 30.39 858 25.34 7.5 45.5 44 -4.1 24.7
09:30 1029 30.39 859 25.37 7.5 45.4 44 -3.9 25.1
09:35 1029 30.39 859 25.37 7.5 45.5 44 -3.8 25.1
09:40 1029 30.39 859 25.37 7.7 45.8 44 -3.6 25.5
09:45 1029 30.39 859 25.37 7.8 46 44 -3.6 25.5
09:50 1029 30.39 859 25.37 7.8 46 44 -3.8 25.2
09:55 1029 30.39 859 25.37 7.8 46 44 -3.7 25.4
10:00 1029 30.39 859 25.37 8 46.3 43 -3.8 25.2
10:05 1029 30.39 859 25.37 8.1 46.5 43 -3.8 25.2
10:10 1029 30.39 859 25.37 8.4 47.2 41 -3.9 24.9
10:15 1029 30.39 858 25.34 8.6 47.5 41 -3.8 25.2
10:20 1029 30.39 858 25.34 8.8 47.8 41 -3.7 25.3
10:25 1029 30.39 858 25.34 8.8 47.8 42 -3.5 25.6
10:30 1029 30.39 858 25.34 8.9 48 40 -3.8 25.1
10:35 1029 30.39 858 25.34 9 48.1 41 -3.7 25.3
10:40 1029 30.39 858 25.34 9.1 48.3 39 -4 24.8
10:45 1029 30.39 858 25.34 9.4 48.9 39 -3.9 25
10:50 1029 30.39 858 25.34 9.2 48.6 39 -3.9 25
10:55 1029 30.39 858 25.34 9.4 48.8 38 -4.1 24.6
11:00 1029 30.39 858 25.34 9.6 49.2 37 -4.3 24.3
11:05 1029 30.39 858 25.34 9.6 49.3 38 -4 24.8
11:10 1029 30.39 858 25.34 9.8 49.6 37 -4.2 24.5
11:15 1029 30.39 858 25.34 10.1 50.2 36 -4.1 24.7
11:20 1029 30.39 858 25.34 10.3 50.5 36 -4 24.8
11:25 1029 30.39 858 25.34 10.6 51.1 36 -4 24.9
11:30 1029 30.39 858 25.34 10.3 50.5 36 -4.2 24.5
11:35 1029 30.39 858 25.34 10.5 50.9 35 -4.3 24.3
11:40 1029 30.39 858 25.34 10.5 50.8 36 -4.1 24.6
11:45 1029 30.39 858 25.34 10.8 51.5 33 -4.6 23.7
11:50 1029 30.39 858 25.34 10.8 51.4 35 -4.1 24.6
11:55 1029 30.39 858 25.34 10.8 51.4 35 -3.8 25.1
12:00 1029 30.39 858 25.34 10.5 50.8 36 -3.9 24.9
12:05 1029 30.39 858 25.34 10.5 50.9 36 -4.1 24.7
12:10 1029 30.39 858 25.34 10.8 51.4 36 -3.9 25
12:15 1029 30.39 858 25.34 10.9 51.6 35 -4.1 24.7
12:20 1029 30.39 858 25.34 11.2 52.1 34 -4.1 24.6
12:25 1029 30.39 858 25.34 11 51.7 34 -4.1 24.7
12:30 1029 30.39 858 25.34 11.1 52.1 34 -4.1 24.7
12:35 1028 30.36 858 25.34 11.3 52.3 33 -4.2 24.4
12:40 1028 30.36 858 25.34 11.2 52.1 34 -3.9 24.9
12:45 1028 30.36 858 25.34 11.3 52.3 34 -4.2 24.5
12:50 1028 30.36 858 25.34 11.6 52.8 33 -4.1 24.7
12:55 1028 30.36 858 25.34 11.5 52.8 34 -3.9 25
13:00 1028 30.36 857 25.31 11.5 52.7 33 -4.1 24.7
13:05 1028 30.36 857 25.31 11.7 53 33 -4.1 24.6
13:10 1028 30.36 857 25.31 11.7 53 33 -3.9 24.9
13:15 1028 30.36 857 25.31 11.9 53.4 33 -4 24.8
13:20 1028 30.36 857 25.31 12.1 53.8 32 -4 24.8
13:25 1028 30.36 857 25.31 12.2 53.9 32 -3.9 24.9
13:30 1028 30.36 857 25.31 12.5 54.5 31 -3.9 24.9
13:35 1028 30.36 857 25.31 12.2 54 32 -3.9 25
13:40 1028 30.36 857 25.31 12 53.5 33 -3.9 24.9
13:45 1028 30.36 857 25.31 12.3 54.1 32 -3.8 25.1
13:50 1028 30.36 857 25.31 12.4 54.3 32 -3.7 25.3
13:55 1028 30.36 857 25.31 12.2 53.9 32 -3.9 25
14:00 1028 30.36 857 25.31 12.4 54.4 32 -3.9 25
14:05 1028 30.36 857 25.31 12.4 54.4 32 -3.9 24.9
14:10 1028 30.36 857 25.31 12.4 54.4 32 -3.7 25.4
14:15 1028 30.36 857 25.31 12.6 54.8 32 -3.8 25.2
14:20 1028 30.36 857 25.31 12.9 55.3 31 -3.6 25.5
14:25 1028 30.36 857 25.31 12.7 54.8 32 -3.6 25.4
14:30 1028 30.36 857 25.31 12.4 54.3 31 -4 24.8
14:35 1028 30.36 857 25.31 12.5 54.4 32 -3.9 25
14:40 1028 30.36 857 25.31 12.9 55.3 31 -3.7 25.4
14:45 1028 30.36 857 25.31 12.6 54.7 31 -3.8 25.1
14:50 1028 30.36 857 25.31 12.5 54.6 31 -3.9 25
14:55 1028 30.36 857 25.31 12.6 54.7 32 -3.7 25.4
15:00 1028 30.36 857 25.31 12.7 54.8 31 -3.9 25
15:05 1028 30.36 857 25.31 12.8 55 32 -3.6 25.5
15:10 1028 30.36 857 25.31 12.7 54.8 32 -3.7 25.4
15:15 1028 30.36 857 25.31 12.5 54.5 32 -3.8 25.1
15:20 1028 30.36 857 25.31 12.8 55 31 -3.7 25.4
15:25 1028 30.36 857 25.31 12.5 54.5 32 -3.6 25.6
15:30 1028 30.36 857 25.31 12.4 54.2 32 -3.7 25.3
15:35 1028 30.36 857 25.31 12.3 54.1 32 -3.8 25.1
15:40 1028 30.36 857 25.31 12.2 54 32 -3.8 25.2
15:45 1028 30.36 857 25.31 12.3 54.1 32 -3.8 25.1
15:50 1028 30.36 857 25.31 12.3 54.1 32 -3.8 25.1
15:55 1028 30.36 857 25.31 12.2 53.9 32 -3.8 25.1
16:00 1028 30.36 857 25.31 12.2 53.9 33 -3.8 25.2
16:05 1028 30.36 857 25.31 11.8 53.3 33 -3.8 25.1
16:10 1028 30.36 857 25.31 11.8 53.2 33 -3.9 25
16:15 1028 30.36 857 25.31 11.6 53 33 -3.9 25
16:20 1028 30.36 857 25.31 11.5 52.7 34 -3.8 25.2
16:25 1028 30.36 857 25.31 11.4 52.5 34 -3.9 24.9
16:30 1028 30.36 857 25.31 11.3 52.4 34 -3.9 25
16:35 1028 30.36 857 25.31 11.2 52.1 34 -4 24.9
16:40 1028 30.36 857 25.31 11.1 51.9 35 -3.9 25
16:45 1028 30.36 857 25.31 11 51.7 35 -3.9 25
16:50 1028 30.36 857 25.31 10.8 51.5 35 -3.8 25.1
16:55 1028 30.36 857 25.31 10.8 51.4 36 -3.8 25.1
17:00 1028 30.36 857 25.31 10.6 51 36 -3.8 25.2
17:05 1028 30.36 857 25.31 10.5 50.8 37 -3.7 25.3
17:10 1028 30.36 857 25.31 10.3 50.5 37 -3.9 25
17:15 1028 30.36 857 25.31 10.2 50.3 37 -3.8 25.2
17:20 1028 30.36 857 25.31 10 49.9 38 -3.8 25.1
17:25 1028 30.36 857 25.31 9.9 49.8 37 -4 24.8
17:30 1028 30.36 857 25.31 9.8 49.6 38 -4 24.9
17:35 1028 30.36 857 25.31 9.6 49.3 38 -4 24.8
17:40 1028 30.36 857 25.31 9.5 49.2 38 -4 24.7
17:45 1028 30.36 857 25.31 9.4 48.9 38 -4 24.7
17:50 1028 30.36 857 25.31 9.3 48.7 39 -4.1 24.7
17:55 1028 30.36 857 25.31 9.2 48.5 39 -4.2 24.5
18:00 1028 30.36 857 25.31 9.1 48.4 39 -4.2 24.5
18:05 1028 30.36 857 25.31 9 48.1 39 -4.3 24.3
18:10 1028 30.36 857 25.31 9 48.1 39 -4.3 24.3
18:15 1028 30.36 857 25.31 8.8 47.9 39 -4.3 24.3
18:20 1028 30.36 857 25.31 8.7 47.7 39 -4.3 24.2
18:25 1028 30.36 857 25.31 8.7 47.6 40 -4.3 24.2
18:30 1028 30.36 857 25.31 8.6 47.5 39 -4.4 24.1
18:35 1028 30.36 857 25.31 8.6 47.5 39 -4.5 23.8
18:40 1028 30.36 857 25.31 8.6 47.4 39 -4.5 24
18:45 1028 30.36 857 25.31 8.4 47.2 39 -4.5 23.8
18:50 1028 30.36 857 25.31 8.4 47 40 -4.6 23.7
18:55 1028 30.36 857 25.31 8.3 47 40 -4.6 23.8
19:00 1028 30.36 857 25.31 8.3 46.9 39 -4.7 23.5
19:05 1028 30.36 857 25.31 8.2 46.8 40 -4.7 23.5
19:10 1028 30.36 857 25.31 8.2 46.8 39 -4.8 23.3
19:15 1028 30.36 857 25.31 8.2 46.7 40 -4.8 23.4
19:20 1028 30.36 857 25.31 8.1 46.6 40 -4.8 23.4
19:25 1028 30.36 857 25.31 8.1 46.5 40 -4.7 23.5
19:30 1028 30.36 857 25.31 7.9 46.2 41 -4.6 23.7
19:35 1028 30.36 857 25.31 7.8 46.1 41 -4.7 23.5
19:40 1028 30.36 857 25.31 7.8 46 41 -4.7 23.5
19:45 1028 30.36 857 25.31 7.7 45.9 41 -4.7 23.6
19:50 1028 30.36 857 25.31 7.8 46 41 -4.7 23.5
19:55 1028 30.36 857 25.31 7.7 45.8 41 -4.7 23.5
20:00 1028 30.36 857 25.31 7.7 45.8 41 -4.6 23.7
20:05 1028 30.36 857 25.31 7.6 45.7 42 -4.6 23.8
20:10 1028 30.36 857 25.31 7.5 45.6 42 -4.5 23.8
20:15 1028 30.36 857 25.31 7.5 45.6 42 -4.5 23.9
20:20 1028 30.36 857 25.31 7.5 45.5 42 -4.5 23.9
20:25 1028 30.36 857 25.31 7.5 45.5 42 -4.5 24
20:30 1028 30.36 857 25.31 7.5 45.5 43 -4.4 24.1
20:35 1028 30.36 857 25.31 7.4 45.4 43 -4.4 24.1
20:40 1028 30.36 857 25.31 7.4 45.3 43 -4.4 24.1
20:45 1028 30.36 857 25.31 7.4 45.3 43 -4.4 24.1
20:50 1028 30.36 857 25.31 7.3 45.2 43 -4.4 24.1
20:55 1028 30.36 857 25.31 7.3 45.1 43 -4.4 24.1
21:00 1028 30.36 857 25.31 7.2 44.9 43 -4.5 24
21:05 1028 30.36 857 25.31 7.1 44.8 43 -4.5 23.9
21:10 1028 30.36 857 25.31 7.1 44.7 43 -4.5 23.9
21:15 1028 30.36 857 25.31 7 44.6 44 -4.5 24
21:20 1028 30.36 857 25.31 6.9 44.5 44 -4.5 23.9
21:25 1028 30.36 857 25.31 6.9 44.3 44 -4.5 23.9
21:30 1028 30.36 857 25.31 6.8 44.3 44 -4.6 23.7
21:35 1028 30.36 857 25.31 6.8 44.3 44 -4.5 23.9
21:40 1028 30.36 857 25.31 6.7 44 45 -4.5 23.9
21:45 1027 30.33 857 25.31 6.6 43.8 45 -4.6 23.8
21:50 1027 30.33 857 25.31 6.5 43.8 45 -4.6 23.7
21:55 1027 30.33 857 25.31 6.5 43.6 45 -4.7 23.6
22:00 1027 30.33 857 25.31 6.4 43.6 45 -4.7 23.6
22:05 1027 30.33 856 25.28 6.4 43.5 45 -4.7 23.5
22:10 1027 30.33 857 25.31 6.3 43.4 45 -4.7 23.5
22:15 1027 30.33 856 25.28 6.3 43.3 45 -4.8 23.4
22:20 1027 30.33 856 25.28 6.3 43.3 45 -4.8 23.4
22:25 1027 30.33 857 25.31 6.2 43.2 45 -4.8 23.3
22:30 1027 30.33 857 25.31 6.2 43.2 45 -4.9 23.3
22:35 1027 30.33 857 25.31 6.2 43.2 45 -4.9 23.2
22:40 1027 30.33 857 25.31 6.2 43.2 45 -4.8 23.4
22:45 1027 30.33 857 25.31 6.1 43 45 -4.9 23.2
22:50 1027 30.33 857 25.31 6.1 42.9 45 -4.9 23.1
22:55 1027 30.33 857 25.31 6 42.9 45 -4.9 23.2
23:00 1027 30.33 857 25.31 6 42.8 45 -4.9 23.2
23:05 1027 30.33 857 25.31 5.9 42.7 46 -5 23.1
23:10 1027 30.33 857 25.31 5.8 42.5 46 -5 23
23:15 1027 30.33 857 25.31 5.7 42.3 45 -5.2 22.7
23:20 1027 30.33 857 25.31 5.7 42.3 45 -5.2 22.6
23:25 1027 30.33 857 25.31 5.6 42.1 45 -5.3 22.4
23:30 1027 30.33 857 25.31 5.6 42.1 45 -5.5 22.2
23:35 1027 30.33 857 25.31 5.6 42.1 45 -5.5 22.1
23:40 1027 30.33 856 25.28 5.6 42.1 45 -5.6 22
23:45 1027 30.33 857 25.31 5.6 42 44 -5.6 21.8
23:50 1027 30.33 856 25.28 5.5 41.9 44 -5.7 21.8
23:55 1027 30.33 856 25.28 5.5 41.9 44 -5.7 21.8
24:00 1027 30.33 856 25.28 5.5 41.9 44 -5.7 21.7